Station: Barimunya  

  Atmospheric Gas Attenuation - ITU Rec 676-11   ----------------- dB/100km -----------------
Date Time Temp RH % AH g/m3 Dew Point Wind Direction Speed kph Gust kph Barometer mB Rainfall Since 9am 24GHz 47GHz 76GHz 122GHz 134GHz 241GHz
08/05 09:20 18.1 37 5.72 3.2 20 28 1013.1 0 13.3 20.5 27.4 71.4 59.1 201.3
08/05 09:10 17.6 39 5.85 3.5 26 32 1013.1 0 13.6 20.8 28.0 73.0 60.9 207.6
08/05 09:00 17.3 39 5.75 3.2 28 39 1022.9 0 13.4 21.0 28.1 73.1 60.6 206.2
08/05 08:50 17.1 40 5.82 3.4 24 30 1013.1 0 13.6 20.9 28.1 73.2 61.0 207.7
08/05 08:40 16.9 41 5.9 3.6 30 33 1013.1 0 13.7 21.0 28.4 74.1 62.0 211.4
08/05 08:30 16.6 41 5.79 3.3 30 39 1022.9 0 13.5 21.3 28.5 74.1 61.6 209.5
08/05 08:19 16.5 43 6.04 3.9 30 35 1013.1 0 14.0 21.3 29.0 75.7 64.0 218.1
08/05 08:10 16.1 43 5.89 3.5 35 46 1013.1 0 13.7 21.2 28.7 74.7 62.6 213.1
08/05 08:00 16.1 44 6.03 3.9 35 43 1022.9 0 14.0 21.7 29.5 76.9 64.7 220.6
08/05 07:50 15.9 44 5.96 3.7 33 39 1013.1 0 13.9 21.3 29.0 75.6 63.5 216.5
08/05 07:40 15.6 45 5.98 3.7 28 33 1013.1 0 13.9 21.4 29.2 76.0 64.0 218.1
08/05 07:30 15.5 45 5.95 3.6 32 44 1022.8 0 13.9 21.7 29.4 76.7 64.3 218.9
08/05 07:20 15.3 46 6.01 3.8 30 41 1013.1 0 14.0 21.5 29.4 76.6 64.6 220.1
08/05 07:10 15.1 46 5.93 3.6 28 37 1013.1 0 13.9 21.5 29.2 76.0 63.8 217.4
08/05 07:00 15.1 46 5.93 3.6 30 41 1022.4 0 13.9 21.8 29.5 76.8 64.3 219.1
08/05 06:50 14.9 46 5.86 3.4 30 37 1013.1 0 13.7 21.4 29.0 75.5 63.1 215.0
08/05 06:40 14.9 46 5.86 3.4 32 35 1013.1 0 13.7 21.4 29.0 75.5 63.1 215.0
08/05 06:30 14.9 46 5.86 3.4 28 35 1022.2 0 13.7 21.7 29.3 76.3 63.7 216.7
08/05 06:20 14.9 45 5.74 3.1 30 35 1013.1 0 13.5 21.2 28.5 74.4 61.7 210.1
08/05 06:10 15 44 5.64 2.9 22 32 1013.1 0 13.3 21.1 28.2 73.4 60.5 205.8
08/05 06:00 15.2 44 5.71 3 26 35 1022.2 0 13.4 21.4 28.7 74.6 61.7 209.8
08/05 05:50 15.2 43 5.58 2.7 24 30 1013.1 0 13.1 21.0 27.9 72.6 59.7 202.8
08/05 05:40 15.4 42 5.52 2.6 30 35 1013.1 0 13.0 20.8 27.6 71.9 58.8 199.9
08/05 05:30 15.5 41 5.42 2.3 32 44 1021.9 0 12.8 21.0 27.5 71.6 58.1 197.2
08/05 05:20 15.6 40 5.32 2.1 28 33 1013.1 0 12.6 20.5 26.9 69.9 56.4 191.4
08/05 05:10 15.6 39 5.19 1.7 30 33 1013.1 0 12.3 20.3 26.4 68.7 54.9 186.2
08/05 05:00 15.8 38 5.12 1.5 30 39 1021.5 0 12.1 20.5 26.4 68.5 54.4 184.4
08/05 04:50 15.9 37 5.01 1.2 22 28 1013.1 0 11.9 20.0 25.7 66.8 52.7 178.5
08/05 04:40 16 36 4.9 1 26 32 1013.1 0 11.7 19.8 25.3 65.7 51.4 174.0
08/05 04:30 16 35 4.77 0.6 24 30 1013.1 0 11.4 19.7 24.9 64.6 50.0 168.9
08/05 04:20 16.1 35 4.8 0.7 26 30 1013.1 0 11.4 19.7 24.9 64.8 50.3 169.9
08/05 04:10 16.2 34 4.69 0.3 20 26 1013.1 0 11.2 19.5 24.5 63.7 49.0 165.4
08/05 04:00 16.2 34 4.69 0.3 22 32 1021.2 0 11.2 19.8 24.8 64.3 49.4 166.6
08/05 03:50 16.5 33 4.63 0.2 28 32 1013.1 0 11.1 19.4 24.3 62.9 48.1 162.5
08/05 03:40 16.7 33 4.69 0.4 28 35 1013.1 0 11.2 19.4 24.4 63.3 48.7 164.4
08/05 03:30 16.7 33 4.69 0.4 24 35 1021.2 0 11.2 19.7 24.7 63.9 49.1 165.6
08/05 03:20 16.7 33 4.69 0.4 19 24 1013.1 0 11.2 19.4 24.4 63.3 48.7 164.4
08/05 03:10 16.9 32 4.6 0.1 26 32 1013.1 0 11.0 19.2 24.0 62.4 47.6 160.6
08/05 03:00 17 32 4.63 0.2 24 39 1021.1 0 11.1 19.5 24.4 63.2 48.2 162.7
08/05 02:50 17.2 32 4.69 0.4 24 30 1013.1 0 11.2 19.3 24.3 62.9 48.4 163.4
08/05 02:40 17.3 32 4.71 0.5 28 39 1013.1 0 11.2 19.3 24.3 63.0 48.5 164.0
08/05 02:30 17.3 31 4.57 0 28 35 1021.1 0 10.9 19.4 24.1 62.4 47.4 159.8
08/05 02:20 17.5 31 4.62 0.2 28 35 1013.1 0 11.0 19.1 23.9 62.1 47.5 160.2
08/05 02:10 17.6 30 4.5 -0.2 22 28 1013.1 0 10.8 19.0 23.5 61.0 46.1 155.4
08/05 02:00 17.7 30 4.53 -0.1 26 35 1021.1 0 10.8 19.2 23.9 61.7 46.7 157.5
08/05 01:50 17.8 30 4.55 0 26 32 1013.1 0 10.9 19.0 23.6 61.3 46.5 157.0
08/05 01:40 18.1 29 4.48 -0.2 26 35 1013.1 0 10.7 18.8 23.3 60.4 45.6 153.8
08/05 01:30 18.4 29 4.56 0.1 26 44 1021 0 10.9 19.1 23.7 61.5 46.6 157.3
08/05 01:20 18.4 28 4.4 -0.4 22 26 1013.1 0 10.5 18.7 23.0 59.5 44.6 150.2
08/05 01:10 18.5 28 4.43 -0.3 28 46 1020.9 0 10.6 18.9 23.3 60.3 45.2 152.2
08/05 01:00 18.5 28 4.43 -0.3 24 37 1021 0 10.6 18.9 23.3 60.3 45.2 152.3
08/05 00:50 18.6 28 4.46 -0.2 22 26 1013.1 0 10.7 18.7 23.1 59.9 45.1 152.1
08/05 00:40 18.8 27 4.35 -0.6 28 33 1013.1 0 10.4 18.5 22.7 58.8 43.9 147.7
08/05 00:30 18.7 27 4.32 -0.7 26 39 1021.2 0 10.4 18.8 22.9 59.2 43.9 147.8
08/05 00:20 18.7 27 4.32 -0.7 20 26 1013.1 0 10.4 18.5 22.6 58.6 43.6 146.8
08/05 00:10 18.8 27 4.35 -0.6 24 30 1013.1 0 10.4 18.5 22.7 58.8 43.9 147.7
08/05 00:00 19 27 4.4 -0.4 24 37 1021.4 0 10.5 18.8 23.1 59.7 44.6 150.3
07/05 23:50 19.1 27 4.43 -0.3 28 35 1013.1 0 10.6 18.6 22.9 59.3 44.5 150.1
07/05 23:40 19 27 4.4 -0.4 24 30 1013.1 0 10.5 18.6 22.8 59.1 44.3 149.2
07/05 23:30 19.1 27 4.43 -0.3 24 32 1021.4 0 10.6 18.8 23.1 59.9 44.9 151.2
07/05 23:20 19.1 26 4.26 -0.8 22 26 1013.1 0 10.2 18.4 22.4 57.9 42.8 143.9
07/05 23:10 19.2 26 4.29 -0.7 28 32 1013.1 0 10.3 18.4 22.4 58.0 43.0 144.8
07/05 23:00 19.2 26 4.29 -0.7 24 35 1021.3 0 10.3 18.6 22.7 58.6 43.4 145.9
07/05 22:50 19.3 25 4.15 -1.2 22 30 1013.1 0 10.0 18.2 22.0 56.8 41.5 139.5
07/05 22:40 19.7 25 4.24 -0.9 33 39 1013.1 0 10.2 18.2 22.1 57.3 42.3 142.1
07/05 22:30 19.6 25 4.22 -0.9 22 33 1021.4 0 10.1 18.5 22.4 57.8 42.4 142.6
07/05 22:20 19.7 25 4.24 -0.9 28 33 1013.1 0 10.2 18.2 22.1 57.3 42.3 142.1
07/05 22:10 19.7 25 4.24 -0.9 24 28 1013.1 0 10.2 18.2 22.1 57.3 42.3 142.1
07/05 22:00 19.9 24 4.12 -1.2 22 30 1021.3 0 9.9 18.3 22.0 56.7 41.3 138.5
07/05 21:50 20 24 4.15 -1.2 24 32 1013.1 0 10.0 18.1 21.8 56.3 41.2 138.4
07/05 21:40 20.1 24 4.17 -1.1 22 28 1013.1 0 10.0 18.1 21.8 56.4 41.3 138.9
07/05 21:30 20.2 24 4.2 -1 22 32 1021 0 10.1 18.3 22.1 57.2 41.9 140.8
07/05 21:20 20.3 24 4.22 -0.9 19 24 1013.1 0 10.1 18.1 21.9 56.7 41.8 140.4
07/05 21:10 20.5 24 4.27 -0.7 24 30 1013.1 0 10.2 18.1 22.0 57.0 42.2 141.8
07/05 21:00 20.4 24 4.25 -0.8 20 33 1020.9 0 10.2 18.3 22.2 57.4 42.3 142.3
07/05 20:50 20.7 24 4.32 -0.6 26 28 1013.1 0 10.3 18.1 22.1 57.3 42.6 143.3
07/05 20:40 20.6 24 4.3 -0.7 19 22 1013.1 0 10.3 18.1 22.1 57.2 42.4 142.8
07/05 20:30 20.7 25 4.5 0 20 30 1020.8 0 10.7 18.6 22.9 59.3 44.7 150.8
07/05 20:20 20.8 25 4.53 0.1 22 24 1013.1 0 10.7 18.4 22.7 58.9 44.7 150.7
07/05 20:10 21 25 4.58 0.2 28 33 1013.1 0 10.8 18.4 22.8 59.2 45.1 152.2
07/05 20:00 21 25 4.58 0.2 22 30 1020.2 0 10.8 18.6 23.1 59.7 45.4 153.1
07/05 19:50 21.1 25 4.61 0.3 19 22 1013.1 0 10.9 18.4 22.9 59.4 45.3 153.1
07/05 19:40 21.3 26 4.85 1 22 26 1013.1 0 11.4 18.7 23.6 61.2 47.7 161.4
07/05 19:30 21.4 26 4.87 1.1 22 32 1019.8 0 11.4 18.9 23.8 61.8 48.1 162.9
07/05 19:20 21.6 25 4.74 0.8 24 28 1013.1 0 11.2 18.5 23.2 60.1 46.4 156.8
07/05 19:10 21.7 26 4.96 1.4 22 26 1013.1 0 11.6 18.7 23.8 61.9 48.6 164.6
07/05 19:00 21.8 26 4.99 1.5 20 30 1019.5 0 11.7 19.0 24.1 62.5 49.1 166.5
07/05 18:50 22 26 5.05 1.6 22 26 1013.1 0 11.8 18.8 24.0 62.4 49.3 167.3
07/05 18:40 22.1 26 5.07 1.7 26 30 1013.1 0 11.8 18.8 24.1 62.5 49.5 167.8
07/05 18:30 22.3 26 5.13 1.9 22 32 1019.3 0 11.9 19.0 24.4 63.3 50.3 170.5
07/05 18:20 22.3 26 5.13 1.9 20 24 1013.1 0 11.9 18.8 24.2 62.8 50.0 169.6
07/05 18:10 22.3 26 5.13 1.9 22 26 1013.1 0 11.9 18.8 24.2 62.8 50.0 169.6
07/05 18:00 22.4 26 5.16 2 24 35 1019 0 12.0 19.0 24.4 63.4 50.5 171.4
07/05 17:50 22.5 25 4.99 1.5 22 30 1013.1 0 11.6 18.6 23.7 61.5 48.4 164.1
07/05 17:40 22.7 25 5.05 1.7 22 28 1013.1 0 11.8 18.7 23.8 61.9 48.9 165.9
07/05 17:30 22.9 25 5.11 1.9 22 35 1018.6 0 11.9 18.9 24.1 62.6 49.7 168.5
07/05 17:20 23.2 24 4.99 1.5 24 28 1013.1 0 11.6 18.5 23.5 61.0 48.0 162.8
07/05 17:09 23.3 24 5.02 1.6 24 32 1013.1 0 11.7 18.5 23.6 61.2 48.3 163.7
07/05 16:00 24.2 23 5.06 1.8 30 43 1018.4 0 11.7 18.5 23.6 61.2 48.4 164.1
07/05 16:03 24 23 5 1.6 33 39 1013.1 0 11.6 18.4 23.3 60.5 47.7 161.6

Last Refresh: 08-May-2026 11:04:01

Bureau of Meteorology